Portland, Iowa
Current Conditions -  °F | °C
As of 10:13 AM on Wednesday 26 Nov 2014 (Local Time) from KMCW Reporting Station
Light Snow Light Snow  
Wind Chill: 18°   Ceiling: 2300
Heat Index: 27°   Visibility: 3mi
Dew Point: 22°   Wind: 9mph
Humidity: 81%   Direction: 80°E
Pressure: 30.04"   Gusts: NA
Location:  43.1451°N, 93.1385°W
Report Text: KMCW 261613Z AUTO 08008KT 3SM -SN BKN023 OVC031 M03/M06 A3004 RMK AO2 P0000 T10281056
Loading
Personal Weather Stations






























Interactive Weather Map New forecast layout! Learn more

10-Day Weather Forecast

Advertisements
Track Severe Weather on mobile